Sign in Sign up

Heerenveen

Pos Pair Lane Name Born Nation Time
1 4 - Miho Takagi 1994 Japan 2:59.51
1 4 - Nana Takagi 1992 Japan 2:59.51
1 4 - Ayano Sato 1996 Japan 2:59.51
2 4 - Gabriele Hirschbichler 1983 Germany 3:02.47
2 4 - Roxanne Dufter 1992 Germany 3:02.47
2 4 - Isabell Ost 1988 Germany 3:02.47
3 3 - Katarzyna Woźniak 1989 Poland 3:03.50
3 3 - Natalia Czerwonka 1988 Poland 3:03.50
3 3 - Katarzyna Bachleda-Curuś 1980 Poland 3:03.50
4 5 - Natalya Voronina 1994 Russia 3:04.33
4 5 - Elizaveta Kazelina 1996 Russia 3:04.33
4 5 - Olga Graf 1983 Russia 3:04.33
5 1 - Brianne Tutt 1992 Canada 3:04.49
5 1 - Ivanie Blondin 1990 Canada 3:04.49
5 1 - Isabelle Weidemann 1995 Canada 3:04.49
6 2 - Petra Acker 1993 USA 3:04.63
6 2 - Mia Manganello 1989 USA 3:04.63
6 2 - Kelly Gunther 1987 USA 3:04.63
7 3 - Ji-Woo Park 1998 South Korea 3:06.42
7 3 - Seon-Yeong Noh 1989 South Korea 3:06.42
7 3 - Bo-Reum Kim 1993 South Korea 3:06.42
8 2 - Xin Zhao 1992 China 3:11.60
8 2 - Moyuan Xu 1993 China 3:11.60
8 2 - Jiaying Tao 1993 China 3:11.60
9 5 - Marrit Leenstra 1989 Netherlands 3:38.15
9 5 - Ireen Wüst 1986 Netherlands 3:38.15
9 5 - Linda de Vries 1988 Netherlands 3:38.15

Info

What World Cup
Discipline Team Pursuit
Host Heerenveen
Nation Netherlands
Date Friday 9.Dec 2016
Calendar 2016/2017
Air Temp 13.6 C
Ice Temp -7.2 C
Humidity 38 %